Time;durP1;ratioP1;P1;durP2;ratioP2;P2;SDS_P1;SDS_P2;PMS_P1;PMS_P2;Temp;Humidity;BMP_temperature;BMP_pressure;BME280_temperature;BME280_humidity;BME280_pressure;Samples;Min_cycle;Max_cycle;Signal;HPM_P1;HPM_P2
2022/06/22 00:01:52;;;;;;;6.28;3.95;;;21.00;99.90;;;;;;5053976;28;20196;-58
2022/06/22 00:04:27;;;;;;;8.60;4.03;;;20.90;99.90;;;;;;5058075;28;20629;-57
2022/06/22 00:06:56;;;;;;;5.75;4.40;;;20.90;99.90;;;;;;5058188;28;20651;-58
2022/06/22 00:09:55;;;;;;;7.95;4.53;;;20.90;99.90;;;;;;5058076;28;20533;-58
2022/06/22 00:12:24;;;;;;;6.38;4.25;;;20.80;99.90;;;;;;5053495;28;20189;-58
2022/06/22 00:14:56;;;;;;;5.97;4.13;;;20.80;99.90;;;;;;5057987;28;20213;-58
2022/06/22 00:17:36;;;;;;;8.77;3.85;;;20.80;99.90;;;;;;5057968;28;20602;-57
2022/06/22 00:20:13;;;;;;;8.20;4.28;;;20.70;99.90;;;;;;5057877;28;20237;-58
2022/06/22 00:22:48;;;;;;;5.25;3.83;;;20.70;99.90;;;;;;5057821;28;20658;-57
2022/06/22 00:25:37;;;;;;;5.80;3.78;;;20.70;99.90;;;;;;5058338;28;20549;-57
2022/06/22 00:28:27;;;;;;;4.63;3.58;;;20.60;99.90;;;;;;5057784;28;20213;-57
2022/06/22 00:31:03;;;;;;;5.93;4.13;;;20.60;99.90;;;;;;5038190;28;20653;-58
2022/06/22 00:33:29;;;;;;;8.93;4.93;;;20.60;99.90;;;;;;5050146;28;20192;-57
2022/06/22 00:36:01;;;;;;;6.50;4.18;;;20.60;99.90;;;;;;5057833;28;20290;-57
2022/06/22 00:38:32;;;;;;;7.28;4.03;;;20.60;99.90;;;;;;5056053;28;20215;-57
2022/06/22 00:41:13;;;;;;;4.75;3.83;;;20.50;99.90;;;;;;5054838;28;20181;-58
2022/06/22 00:43:38;;;;;;;4.93;4.10;;;20.50;99.90;;;;;;5054564;28;20553;-58
2022/06/22 00:46:14;;;;;;;4.10;3.45;;;20.50;99.90;;;;;;5054882;28;20177;-58
2022/06/22 00:48:40;;;;;;;7.88;4.28;;;20.40;99.90;;;;;;5054411;28;20655;-57
2022/06/22 00:51:12;;;;;;;5.75;4.30;;;20.40;99.90;;;;;;5054497;28;20196;-58
2022/06/22 00:53:41;;;;;;;5.70;4.28;;;20.40;99.90;;;;;;5054616;28;20181;-57
2022/06/22 00:56:36;;;;;;;9.88;4.63;;;20.30;99.90;;;;;;5054237;28;20224;-57
2022/06/22 00:59:35;;;;;;;6.47;3.80;;;20.20;99.90;;;;;;5053832;28;20185;-57
2022/06/22 01:02:26;;;;;;;5.13;4.03;;;20.20;99.90;;;;;;5032928;28;20611;-58
2022/06/22 01:04:57;;;;;;;5.45;3.70;;;20.10;99.90;;;;;;5035956;28;20209;-57
2022/06/22 01:07:34;;;;;;;7.25;4.18;;;20.10;99.90;;;;;;5041642;28;20174;-58
2022/06/22 01:10:08;;;;;;;19.67;8.75;;;20.10;99.90;;;;;;5053903;28;20173;-58
2022/06/22 01:12:53;;;;;;;19.10;8.38;;;20.00;99.90;;;;;;5050559;28;20281;-58
2022/06/22 01:15:52;;;;;;;12.13;6.40;;;20.00;99.90;;;;;;5033908;28;20213;-58
2022/06/22 01:18:37;;;;;;;10.45;5.05;;;20.00;99.90;;;;;;5039403;28;20280;-57
2022/06/22 01:21:34;;;;;;;5.03;4.20;;;20.00;99.90;;;;;;5053064;28;20197;-57
2022/06/22 01:24:34;;;;;;;6.57;4.22;;;19.90;99.90;;;;;;5053589;28;20268;-58
2022/06/22 01:27:51;;;;;;;6.32;4.55;;;19.90;99.90;;;;;;5053718;28;20185;-58
2022/06/22 01:30:26;;;;;;;6.93;4.75;;;19.80;99.90;;;;;;5022256;28;20200;-57
2022/06/22 01:32:52;;;;;;;5.63;4.05;;;19.80;99.90;;;;;;5053671;28;20173;-58
2022/06/22 01:35:32;;;;;;;6.15;4.20;;;19.70;99.90;;;;;;5053788;28;20290;-58
2022/06/22 01:37:58;;;;;;;5.10;4.15;;;19.70;99.90;;;;;;5053538;28;20295;-58
2022/06/22 01:40:39;;;;;;;5.18;4.13;;;19.70;99.90;;;;;;5053545;28;20197;-58
2022/06/22 01:43:15;;;;;;;7.43;4.15;;;19.70;99.90;;;;;;5052985;28;20185;-58
2022/06/22 01:45:48;;;;;;;6.85;4.03;;;19.70;99.90;;;;;;5053764;28;20178;-57
2022/06/22 01:48:24;;;;;;;5.88;4.03;;;19.70;99.90;;;;;;5053181;28;20173;-58
2022/06/22 01:51:12;;;;;;;5.95;4.10;;;19.70;99.90;;;;;;5052607;28;20330;-57
2022/06/22 01:53:46;;;;;;;5.95;3.92;;;19.60;99.90;;;;;;5053320;28;20683;-58
2022/06/22 01:56:18;;;;;;;6.35;4.43;;;19.50;99.90;;;;;;5053046;28;20225;-57
2022/06/22 01:59:12;;;;;;;7.57;4.45;;;19.40;99.90;;;;;;5053115;28;20538;-58
2022/06/22 02:01:45;;;;;;;7.40;4.20;;;19.40;99.90;;;;;;5052897;28;20272;-57
2022/06/22 02:04:39;;;;;;;8.93;4.70;;;19.30;99.90;;;;;;5053120;28;20181;-57
2022/06/22 02:07:46;;;;;;;7.82;4.22;;;19.30;99.90;;;;;;5053143;28;20189;-57
2022/06/22 02:10:26;;;;;;;8.88;4.90;;;19.30;99.90;;;;;;5052768;28;20185;-57
2022/06/22 02:13:00;;;;;;;8.38;5.20;;;19.20;99.90;;;;;;5052704;28;20682;-57
2022/06/22 02:15:32;;;;;;;6.60;4.60;;;19.00;99.90;;;;;;5050685;28;20256;-57
2022/06/22 02:17:59;;;;;;;5.18;4.20;;;19.00;99.90;;;;;;5052761;28;20189;-57
2022/06/22 02:20:30;;;;;;;8.52;4.55;;;19.00;99.90;;;;;;5051425;28;20575;-57
2022/06/22 02:23:06;;;;;;;6.07;4.80;;;19.00;99.90;;;;;;5052939;28;20707;-58
2022/06/22 02:25:35;;;;;;;9.23;4.57;;;19.00;99.90;;;;;;5052633;28;20265;-57
2022/06/22 02:28:01;;;;;;;8.13;5.55;;;19.00;99.90;;;;;;5052369;28;20188;-57
2022/06/22 02:30:28;;;;;;;6.43;5.22;;;19.00;99.90;;;;;;5051492;28;20532;-57
2022/06/22 02:32:54;;;;;;;7.05;4.85;;;19.10;99.90;;;;;;5052524;28;20689;-57
2022/06/22 02:35:19;;;;;;;8.68;5.15;;;19.10;99.90;;;;;;5052552;28;20315;-57
2022/06/22 02:38:02;;;;;;;4.93;4.32;;;19.10;99.90;;;;;;5052593;28;20205;-57
2022/06/22 02:40:30;;;;;;;6.05;4.70;;;19.10;99.90;;;;;;5044551;28;20264;-57
2022/06/22 02:45:41;;;;;;;14.15;8.25;;;19.20;99.90;;;;;;5052928;28;20213;-57
2022/06/22 02:48:23;;;;;;;11.60;6.75;;;19.10;99.90;;;;;;5052308;28;20181;-57
2022/06/22 02:51:03;;;;;;;8.13;5.38;;;19.10;99.90;;;;;;5052435;28;20192;-57
2022/06/22 02:53:34;;;;;;;7.75;5.68;;;19.10;99.90;;;;;;5052320;28;20483;-57
2022/06/22 02:56:03;;;;;;;6.57;4.82;;;19.10;99.90;;;;;;5052156;28;20221;-57
2022/06/22 02:58:34;;;;;;;4.95;4.50;;;19.10;99.90;;;;;;5051972;28;20180;-57
2022/06/22 03:01:12;;;;;;;7.47;4.13;;;19.10;99.90;;;;;;5051754;28;20185;-57
2022/06/22 03:03:39;;;;;;;5.85;4.88;;;19.00;99.90;;;;;;5052346;28;20181;-57
2022/06/22 03:06:09;;;;;;;5.63;4.47;;;19.00;99.90;;;;;;5051868;28;20550;-57
2022/06/22 03:08:35;;;;;;;6.93;4.32;;;19.00;99.90;;;;;;5052097;28;20209;-57
2022/06/22 03:11:03;;;;;;;5.72;4.63;;;19.00;99.90;;;;;;5051783;28;20189;-57
2022/06/22 03:13:38;;;;;;;7.13;4.38;;;19.00;99.90;;;;;;5051276;28;20671;-57
2022/06/22 03:16:04;;;;;;;9.63;4.80;;;19.00;99.90;;;;;;5048801;28;20212;-57
2022/06/22 03:18:33;;;;;;;5.53;4.78;;;19.00;99.90;;;;;;5052060;28;20181;-57
2022/06/22 03:21:03;;;;;;;6.93;5.03;;;19.00;99.90;;;;;;5032091;28;20241;-57
2022/06/22 03:23:54;;;;;;;7.38;5.45;;;19.00;99.90;;;;;;5046012;28;20189;-57
2022/06/22 03:26:27;;;;;;;7.47;5.05;;;19.00;99.90;;;;;;5051855;28;20199;-57
2022/06/22 03:29:17;;;;;;;7.93;5.50;;;19.00;99.90;;;;;;5051675;28;20180;-57
2022/06/22 03:32:03;;;;;;;12.65;5.22;;;19.00;99.90;;;;;;5051871;28;20182;-57
2022/06/22 03:34:35;;;;;;;9.15;4.80;;;18.90;99.90;;;;;;5051931;28;20182;-57
2022/06/22 03:37:10;;;;;;;5.18;4.70;;;18.90;99.90;;;;;;5051646;28;20200;-57
2022/06/22 03:39:41;;;;;;;10.02;5.20;;;18.80;99.90;;;;;;5051840;28;20242;-57
2022/06/22 03:42:18;;;;;;;5.47;4.70;;;18.80;99.90;;;;;;5051675;28;20189;-57
2022/06/22 03:44:51;;;;;;;5.57;4.10;;;18.80;99.90;;;;;;5051303;28;20560;-58
2022/06/22 03:47:31;;;;;;;8.43;4.97;;;18.70;99.90;;;;;;5051610;28;20189;-57
2022/06/22 03:50:04;;;;;;;5.40;4.80;;;18.80;99.90;;;;;;5051610;28;20189;-57
2022/06/22 03:52:45;;;;;;;5.20;4.70;;;18.80;99.90;;;;;;5051474;28;20193;-56
2022/06/22 03:55:16;;;;;;;4.57;4.10;;;18.80;99.90;;;;;;5051481;28;20220;-55
2022/06/22 03:57:45;;;;;;;6.45;4.30;;;18.80;99.90;;;;;;5031934;28;20174;-56
2022/06/22 04:00:13;;;;;;;6.18;4.40;;;18.70;99.90;;;;;;5042613;28;20178;-56
2022/06/22 04:02:40;;;;;;;5.05;4.18;;;18.70;99.90;;;;;;5052045;28;20173;-56
2022/06/22 04:05:06;;;;;;;5.00;4.00;;;18.70;99.90;;;;;;5051402;28;20265;-56
2022/06/22 04:07:36;;;;;;;5.55;4.20;;;18.70;99.90;;;;;;5051733;28;20169;-57
2022/06/22 04:10:04;;;;;;;6.78;4.70;;;18.70;99.90;;;;;;5050876;28;20181;-56
2022/06/22 04:12:40;;;;;;;6.93;5.10;;;18.70;99.90;;;;;;5051680;28;20258;-57
2022/06/22 04:15:35;;;;;;;9.10;5.05;;;18.70;99.90;;;;;;5053898;28;20216;-56
2022/06/22 04:18:23;;;;;;;5.82;5.03;;;18.80;99.90;;;;;;5054085;28;20185;-56
2022/06/22 04:21:00;;;;;;;7.82;4.70;;;18.90;99.90;;;;;;5046752;28;20225;-55
2022/06/22 04:23:36;;;;;;;5.50;4.95;;;19.00;99.90;;;;;;5054588;28;20169;-55
2022/06/22 04:26:25;;;;;;;7.20;4.82;;;19.00;99.90;;;;;;5054113;28;20208;-55
2022/06/22 04:28:59;;;;;;;9.07;5.20;;;19.10;99.90;;;;;;5054586;28;20186;-57
2022/06/22 04:31:36;;;;;;;6.85;4.90;;;19.10;99.90;;;;;;5048150;28;20236;-57
2022/06/22 04:34:15;;;;;;;8.95;4.90;;;19.10;99.90;;;;;;5054843;28;20199;-57
2022/06/22 04:36:53;;;;;;;7.78;5.00;;;19.20;99.90;;;;;;5054090;28;20201;-57
2022/06/22 04:39:27;;;;;;;7.47;4.93;;;19.30;99.90;;;;;;5053743;28;20169;-57
2022/06/22 04:41:53;;;;;;;6.07;4.85;;;19.40;99.90;;;;;;5054751;28;20272;-57
2022/06/22 04:44:23;;;;;;;8.32;4.95;;;19.50;99.90;;;;;;5054846;28;20170;-57
2022/06/22 04:46:53;;;;;;;6.55;4.57;;;19.60;99.90;;;;;;5054773;28;20244;-57
2022/06/22 04:49:25;;;;;;;6.53;4.57;;;19.70;99.90;;;;;;5054825;28;20184;-57
2022/06/22 04:52:18;;;;;;;6.28;4.88;;;19.80;99.90;;;;;;5054680;28;20169;-57
2022/06/22 04:54:45;;;;;;;9.32;5.38;;;19.90;99.90;;;;;;5054517;28;20268;-57
2022/06/22 04:57:38;;;;;;;9.48;5.13;;;20.00;99.90;;;;;;5054714;28;20181;-57
2022/06/22 05:00:11;;;;;;;7.35;5.30;;;20.00;99.90;;;;;;5052744;28;20182;-57
2022/06/22 05:02:38;;;;;;;7.35;5.00;;;20.00;99.90;;;;;;5053978;28;20182;-57
2022/06/22 05:05:15;;;;;;;7.78;5.20;;;20.10;99.90;;;;;;5054591;28;20581;-57
2022/06/22 05:07:49;;;;;;;7.10;5.00;;;20.30;99.90;;;;;;5054672;28;20889;-57
2022/06/22 05:10:52;;;;;;;6.38;4.43;;;20.40;99.90;;;;;;5054435;28;20181;-57
2022/06/22 05:13:27;;;;;;;6.63;4.82;;;20.50;99.90;;;;;;5054581;28;20587;-57
2022/06/22 05:15:56;;;;;;;8.63;5.93;;;20.60;99.90;;;;;;5054277;28;20629;-57
2022/06/22 05:18:25;;;;;;;10.55;6.60;;;20.70;99.90;;;;;;5054516;28;20243;-57
2022/06/22 05:21:14;;;;;;;12.88;6.30;;;20.70;99.90;;;;;;5054049;28;20237;-57
2022/06/22 05:23:43;;;;;;;9.98;5.47;;;20.70;99.90;;;;;;5054214;28;20182;-57
2022/06/22 05:26:10;;;;;;;6.97;4.57;;;20.70;99.90;;;;;;5053724;28;20239;-56
2022/06/22 05:28:43;;;;;;;7.32;4.80;;;20.80;99.90;;;;;;5054248;28;20220;-56
2022/06/22 05:31:39;;;;;;;6.63;5.20;;;20.90;99.90;;;;;;5054058;28;20177;-57
2022/06/22 05:34:10;;;;;;;10.95;6.13;;;20.90;99.90;;;;;;5049141;28;20182;-57
2022/06/22 05:36:45;;;;;;;11.80;7.13;;;20.90;99.90;;;;;;5053996;28;20331;-57
2022/06/22 05:39:12;;;;;;;9.82;6.70;;;20.90;99.90;;;;;;5053985;28;20698;-57
2022/06/22 05:41:40;;;;;;;7.38;5.18;;;21.00;99.90;;;;;;5054021;28;20189;-57
2022/06/22 05:44:14;;;;;;;5.30;4.63;;;21.20;99.90;;;;;;5053886;28;20177;-57
2022/06/22 05:46:52;;;;;;;6.47;4.70;;;21.40;99.90;;;;;;5054010;28;20185;-57
2022/06/22 05:49:20;;;;;;;7.93;4.68;;;21.50;99.90;;;;;;5053876;28;20185;-57
2022/06/22 05:52:09;;;;;;;8.88;5.03;;;21.50;99.90;;;;;;5053769;28;20186;-57
2022/06/22 05:54:43;;;;;;;5.88;5.28;;;21.30;99.90;;;;;;5053575;28;20192;-57
2022/06/22 05:57:27;;;;;;;6.95;4.90;;;21.10;99.90;;;;;;5053674;28;20657;-57
2022/06/22 06:00:09;;;;;;;6.15;5.00;;;20.90;99.90;;;;;;5053858;28;20565;-57
2022/06/22 06:02:42;;;;;;;8.48;4.80;;;20.80;99.90;;;;;;5053575;28;20217;-57
2022/06/22 06:05:29;;;;;;;7.65;4.47;;;20.80;99.90;;;;;;5053522;28;20212;-57
2022/06/22 06:07:58;;;;;;;6.60;4.47;;;20.80;99.90;;;;;;5053258;28;20193;-57
2022/06/22 06:10:43;;;;;;;4.15;3.70;;;20.80;99.90;;;;;;5053338;28;20507;-57
2022/06/22 06:13:23;;;;;;;5.28;3.08;;;20.80;99.90;;;;;;5053389;28;20188;-57
2022/06/22 06:15:53;;;;;;;6.55;3.67;;;20.80;99.90;;;;;;5053174;28;20688;-57
2022/06/22 06:18:41;;;;;;;4.28;3.60;;;20.80;99.90;;;;;;5053395;28;20243;-58
2022/06/22 06:21:14;;;;;;;4.22;3.70;;;20.80;99.90;;;;;;5053155;28;20728;-57
2022/06/22 06:23:55;;;;;;;4.88;3.97;;;20.80;99.90;;;;;;5053241;28;20185;-57
2022/06/22 06:29:39;;;;;;;5.22;3.50;;;20.70;99.90;;;;;;5053192;28;20323;-57
2022/06/22 06:32:04;;;;;;;8.45;3.17;;;20.60;99.90;;;;;;5052886;28;20180;-57
2022/06/22 06:34:59;;;;;;;10.52;7.05;;;20.60;99.90;;;;;;5052876;28;20177;-57
2022/06/22 06:37:40;;;;;;;9.90;3.90;;;20.50;99.90;;;;;;5052656;28;20212;-57
2022/06/22 06:40:14;;;;;;;8.07;5.30;;;20.50;99.90;;;;;;5052842;28;20264;-57
2022/06/22 06:42:57;;;;;;;7.43;4.43;;;20.40;99.90;;;;;;5052886;28;20220;-57
2022/06/22 06:45:25;;;;;;;7.80;4.30;;;20.30;99.90;;;;;;5052831;28;20177;-57
2022/06/22 06:47:54;;;;;;;6.70;3.92;;;20.20;99.90;;;;;;5052771;28;20550;-57
2022/06/22 06:50:31;;;;;;;4.55;4.15;;;20.10;99.90;;;;;;5052743;28;20177;-57
2022/06/22 06:53:20;;;;;;;6.10;3.60;;;20.00;99.90;;;;;;5052655;28;20536;-57
2022/06/22 06:56:09;;;;;;;6.88;3.78;;;19.90;99.90;;;;;;5052505;28;20216;-57
2022/06/22 06:58:40;;;;;;;4.10;3.60;;;19.90;99.90;;;;;;5052643;28;20176;-57
2022/06/22 07:01:08;;;;;;;5.82;3.60;;;19.90;99.90;;;;;;5052462;28;20510;-58
2022/06/22 07:03:39;;;;;;;7.40;3.25;;;20.00;99.90;;;;;;5052366;28;20636;-57
2022/06/22 07:06:05;;;;;;;4.65;3.40;;;20.00;99.90;;;;;;5052384;28;20192;-57
2022/06/22 07:08:36;;;;;;;5.68;3.33;;;20.10;99.90;;;;;;5052499;28;20216;-57
2022/06/22 07:11:12;;;;;;;4.90;3.40;;;20.20;99.90;;;;;;5052346;28;20701;-57
2022/06/22 07:13:50;;;;;;;6.22;3.97;;;20.30;99.90;;;;;;5052583;28;20663;-57
2022/06/22 07:16:20;;;;;;;10.07;5.60;;;20.40;99.90;;;;;;5052202;28;20224;-57
2022/06/22 07:18:56;;;;;;;9.38;3.92;;;20.50;99.90;;;;;;5052053;28;20311;-58
2022/06/22 07:21:34;;;;;;;5.82;3.58;;;20.50;99.90;;;;;;5052399;28;20181;-57
2022/06/22 07:24:07;;;;;;;5.40;3.58;;;20.50;99.90;;;;;;5052219;28;20173;-57
2022/06/22 07:26:57;;;;;;;6.32;3.65;;;20.40;99.90;;;;;;5052149;28;20560;-57
2022/06/22 07:29:44;;;;;;;5.47;3.40;;;20.40;99.90;;;;;;5052150;28;20537;-57
2022/06/22 07:32:54;;;;;;;5.55;3.47;;;20.40;99.90;;;;;;5052241;28;20726;-57
2022/06/22 07:35:42;;;;;;;5.50;3.60;;;20.40;99.90;;;;;;5042034;28;20598;-57
2022/06/22 07:38:27;;;;;;;5.00;3.78;;;20.50;99.90;;;;;;5052165;28;20193;-57
2022/06/22 07:43:38;;;;;;;6.00;3.90;;;20.60;99.90;;;;;;5052464;28;20180;-57
2022/06/22 07:46:06;;;;;;;7.18;3.55;;;20.60;99.90;;;;;;5051943;28;20256;-57
2022/06/22 07:48:37;;;;;;;4.90;3.65;;;20.70;99.90;;;;;;5054308;28;20173;-57
2022/06/22 07:51:06;;;;;;;4.60;3.33;;;20.70;99.90;;;;;;5056021;28;20181;-57
2022/06/22 07:53:55;;;;;;;4.47;3.75;;;20.70;99.90;;;;;;5055926;28;20170;-57
2022/06/22 07:56:41;;;;;;;4.55;3.92;;;20.70;99.90;;;;;;5055916;28;20216;-57
2022/06/22 07:59:12;;;;;;;6.93;3.92;;;20.70;99.90;;;;;;5055835;28;20328;-57
2022/06/22 08:01:42;;;;;;;4.95;3.78;;;20.70;99.90;;;;;;5055836;28;20182;-57
2022/06/22 08:04:35;;;;;;;6.50;4.20;;;20.70;99.90;;;;;;5055750;28;20181;-57
2022/06/22 08:07:13;;;;;;;7.97;3.92;;;20.80;99.90;;;;;;5055729;28;20545;-57
2022/06/22 08:09:49;;;;;;;5.30;3.47;;;20.90;99.90;;;;;;5055666;28;20208;-57
2022/06/22 08:12:27;;;;;;;4.82;3.92;;;21.00;99.90;;;;;;5055600;28;20165;-57
2022/06/22 08:14:53;;;;;;;5.45;3.80;;;21.10;99.90;;;;;;5055450;28;20350;-57
2022/06/22 08:17:39;;;;;;;4.28;3.70;;;21.20;99.90;;;;;;5055616;28;20226;-57
2022/06/22 08:20:05;;;;;;;6.97;3.80;;;21.20;99.90;;;;;;5055279;28;20708;-57
2022/06/22 08:22:31;;;;;;;4.10;3.70;;;21.30;99.90;;;;;;5055353;28;20188;-57
2022/06/22 08:24:59;;;;;;;4.03;3.40;;;21.40;99.90;;;;;;5055175;28;20181;-57
2022/06/22 08:27:26;;;;;;;5.30;3.70;;;21.40;99.90;;;;;;5055480;28;20182;-57
2022/06/22 08:29:53;;;;;;;5.57;3.55;;;21.40;99.90;;;;;;5055250;28;20188;-57
2022/06/22 08:32:34;;;;;;;4.88;3.47;;;21.40;99.90;;;;;;5055413;28;20255;-57
2022/06/22 08:35:14;;;;;;;5.22;3.50;;;21.40;99.90;;;;;;5055167;28;20251;-57
2022/06/22 08:37:59;;;;;;;5.70;3.72;;;21.40;99.90;;;;;;5055146;28;20632;-57
2022/06/22 08:40:28;;;;;;;4.80;3.17;;;21.40;99.90;;;;;;5055275;28;20181;-57
2022/06/22 08:43:25;;;;;;;6.55;3.60;;;21.40;99.90;;;;;;5054936;28;20184;-57
2022/06/22 08:46:02;;;;;;;3.35;3.05;;;21.50;99.90;;;;;;5055012;28;20181;-57
2022/06/22 08:48:47;;;;;;;3.25;2.80;;;21.60;99.90;;;;;;5055073;28;20184;-57
2022/06/22 08:51:36;;;;;;;5.72;2.90;;;21.70;99.90;;;;;;5054864;28;20232;-57
2022/06/22 08:54:35;;;;;;;4.13;2.60;;;21.70;99.90;;;;;;5054989;28;20181;-57
2022/06/22 08:57:08;;;;;;;4.47;3.10;;;21.80;99.90;;;;;;5054856;28;20271;-57
2022/06/22 08:59:51;;;;;;;6.38;3.53;;;21.80;99.90;;;;;;5054095;28;20186;-57
2022/06/22 09:02:30;;;;;;;3.50;2.88;;;21.90;99.90;;;;;;5054755;28;20178;-57
2022/06/22 09:05:32;;;;;;;5.13;2.92;;;22.00;99.90;;;;;;5054561;28;20177;-57
2022/06/22 09:08:19;;;;;;;2.90;2.70;;;22.10;99.50;;;;;;5054630;28;20598;-58
2022/06/22 09:11:06;;;;;;;5.43;3.22;;;22.20;99.40;;;;;;5054539;28;20174;-57
2022/06/22 09:13:45;;;;;;;6.68;3.17;;;22.30;99.50;;;;;;5054413;28;20644;-57
2022/06/22 09:16:34;;;;;;;4.25;3.03;;;22.40;99.60;;;;;;5054448;28;20270;-57
2022/06/22 09:19:23;;;;;;;7.78;3.00;;;22.40;99.50;;;;;;5054243;28;20209;-58
2022/06/22 09:22:00;;;;;;;3.40;2.72;;;22.40;99.40;;;;;;5054339;28;20181;-57
2022/06/22 09:24:40;;;;;;;7.97;3.60;;;22.40;99.80;;;;;;5054271;28;20235;-57
2022/06/22 09:27:17;;;;;;;5.55;3.38;;;22.50;99.90;;;;;;5054073;28;20271;-58
2022/06/22 09:30:10;;;;;;;5.60;3.65;;;22.60;99.90;;;;;;5054278;28;20173;-57
2022/06/22 09:33:14;;;;;;;5.68;3.70;;;22.80;99.90;;;;;;5054134;28;20181;-57
2022/06/22 09:36:11;;;;;;;5.63;3.50;;;23.00;99.90;;;;;;5054178;28;20221;-57
2022/06/22 09:39:04;;;;;;;5.00;3.55;;;23.10;99.90;;;;;;5053934;28;20180;-57
2022/06/22 09:41:50;;;;;;;6.22;3.47;;;23.20;99.80;;;;;;5054167;28;20184;-57
2022/06/22 09:44:27;;;;;;;5.57;3.45;;;23.20;99.70;;;;;;5053919;28;20655;-57
2022/06/22 09:47:20;;;;;;;4.40;3.28;;;23.30;99.70;;;;;;5053712;28;20221;-58
2022/06/22 09:50:10;;;;;;;6.25;3.85;;;23.40;99.70;;;;;;5053814;28;20235;-58
2022/06/22 09:53:02;;;;;;;4.43;3.38;;;23.50;99.60;;;;;;5053844;28;20181;-57
2022/06/22 09:56:24;;;;;;;6.10;3.88;;;23.60;99.60;;;;;;5053858;28;20232;-57
2022/06/22 09:59:30;;;;;;;4.18;3.78;;;23.70;99.80;;;;;;5043145;28;20670;-58
2022/06/22 10:02:23;;;;;;;7.60;3.90;;;23.80;99.60;;;;;;5053527;28;20173;-58
2022/06/22 10:05:02;;;;;;;5.15;3.58;;;23.80;99.70;;;;;;5053499;28;20185;-58
2022/06/22 10:07:57;;;;;;;5.00;3.40;;;23.80;99.80;;;;;;5053485;28;20177;-58
2022/06/22 10:10:43;;;;;;;4.97;3.65;;;23.80;99.60;;;;;;5053290;28;20540;-58
2022/06/22 10:13:27;;;;;;;7.88;3.72;;;23.80;99.50;;;;;;5052955;28;20205;-59
2022/06/22 10:16:07;;;;;;;5.88;3.53;;;23.90;99.30;;;;;;5053136;28;20244;-58
2022/06/22 10:18:42;;;;;;;4.68;3.42;;;24.00;99.30;;;;;;5053253;28;20231;-58
2022/06/22 10:21:36;;;;;;;4.88;3.50;;;24.20;99.30;;;;;;5053241;28;20197;-58
2022/06/22 10:24:34;;;;;;;3.90;3.22;;;24.40;98.40;;;;;;5053129;28;20217;-58
2022/06/22 10:27:27;;;;;;;4.85;4.07;;;24.50;97.60;;;;;;5053230;28;20193;-58
2022/06/22 10:30:06;;;;;;;5.90;3.78;;;24.70;97.90;;;;;;5042620;28;20592;-58
2022/06/22 10:32:49;;;;;;;6.60;3.78;;;24.60;97.40;;;;;;5053129;28;20184;-58
2022/06/22 10:35:23;;;;;;;4.38;3.67;;;24.50;97.30;;;;;;5052790;28;20220;-58
2022/06/22 10:38:03;;;;;;;7.68;3.90;;;24.40;97.40;;;;;;5051583;28;20235;-58
2022/06/22 10:47:07;;;;;;;5.90;3.85;;;24.50;97.80;;;;;;5052794;28;20320;-58
2022/06/22 10:49:54;;;;;;;6.43;3.88;;;24.50;98.30;;;;;;5052706;28;20644;-58
2022/06/22 10:52:43;;;;;;;5.10;3.58;;;24.50;98.50;;;;;;5052901;28;20357;-58
2022/06/22 10:55:19;;;;;;;8.93;4.00;;;24.40;98.60;;;;;;5052545;28;20215;-58
2022/06/22 10:57:50;;;;;;;7.30;4.32;;;24.40;99.10;;;;;;5052644;28;20230;-58
2022/06/22 11:00:26;;;;;;;5.88;4.40;;;24.40;99.00;;;;;;5052429;28;20197;-58
2022/06/22 11:03:17;;;;;;;6.47;4.55;;;24.40;99.20;;;;;;5052491;28;20200;-58
2022/06/22 11:06:17;;;;;;;5.93;4.28;;;24.40;99.20;;;;;;5052490;28;20652;-58
2022/06/22 11:09:12;;;;;;;9.65;4.03;;;24.50;99.00;;;;;;5052506;28;20169;-58
2022/06/22 11:12:20;;;;;;;5.70;4.53;;;24.50;99.40;;;;;;5052431;28;20201;-58
2022/06/22 11:14:55;;;;;;;9.65;4.60;;;24.50;99.40;;;;;;5051874;28;20235;-58
2022/06/22 11:17:40;;;;;;;5.93;4.07;;;24.60;99.40;;;;;;5052357;28;20184;-58
2022/06/22 11:20:22;;;;;;;6.47;3.92;;;24.70;99.20;;;;;;5052083;28;20225;-58
2022/06/22 11:22:54;;;;;;;6.45;4.60;;;25.00;99.50;;;;;;5052018;28;20181;-58
2022/06/22 11:31:42;;;;;;;6.82;4.50;;;25.30;99.20;;;;;;5052219;28;20239;-58
2022/06/22 11:34:40;;;;;;;6.15;4.47;;;25.30;99.40;;;;;;5052087;28;20181;-58
2022/06/22 11:37:22;;;;;;;6.88;4.20;;;25.40;99.10;;;;;;5052228;28;20224;-58
2022/06/22 11:40:02;;;;;;;6.28;4.63;;;25.30;99.40;;;;;;5052137;28;20184;-58
2022/06/22 11:43:05;;;;;;;6.40;4.20;;;25.00;99.50;;;;;;5052087;28;20169;-58
2022/06/22 11:45:54;;;;;;;6.60;4.45;;;24.90;99.90;;;;;;5052107;28;20180;-58
2022/06/22 11:48:44;;;;;;;5.60;4.45;;;24.70;99.90;;;;;;5052244;28;20223;-58
2022/06/22 11:51:37;;;;;;;5.57;4.35;;;24.80;99.90;;;;;;5052117;28;20663;-58
2022/06/22 11:54:27;;;;;;;6.95;4.45;;;24.60;99.90;;;;;;5051925;28;20701;-58
2022/06/22 11:56:56;;;;;;;9.77;4.78;;;24.40;99.90;;;;;;5051799;28;20362;-58
2022/06/22 11:59:33;;;;;;;8.43;4.78;;;24.40;99.90;;;;;;5051986;28;20628;-58
2022/06/22 12:02:08;;;;;;;9.07;5.50;;;24.50;99.90;;;;;;5051750;28;20173;-58
2022/06/22 12:04:36;;;;;;;7.88;5.00;;;24.50;99.90;;;;;;5051903;28;20177;-58
2022/06/22 12:07:14;;;;;;;8.73;5.28;;;24.50;99.90;;;;;;5051870;28;20188;-58
2022/06/22 12:10:19;;;;;;;5.68;4.93;;;24.50;99.90;;;;;;5051947;28;20230;-58
2022/06/22 12:13:11;;;;;;;5.57;4.80;;;24.50;99.90;;;;;;5050566;28;20633;-58
2022/06/22 12:16:10;;;;;;;6.43;4.88;;;24.60;99.90;;;;;;5051753;28;20271;-58
2022/06/22 12:19:00;;;;;;;7.88;5.40;;;24.70;99.90;;;;;;5051743;28;20182;-58
2022/06/22 12:21:48;;;;;;;8.65;5.30;;;24.70;99.90;;;;;;5051872;28;20273;-58
2022/06/22 12:24:50;;;;;;;10.13;5.57;;;24.80;99.90;;;;;;5051652;28;20262;-58
2022/06/22 12:27:28;;;;;;;10.68;5.55;;;24.90;99.90;;;;;;5051636;28;20176;-58
2022/06/22 12:30:38;;;;;;;8.68;5.95;;;25.00;99.90;;;;;;5051495;28;20182;-58
2022/06/22 12:33:25;;;;;;;8.32;5.20;;;25.10;99.90;;;;;;5051601;28;20551;-58
2022/06/22 12:36:37;;;;;;;10.65;6.65;;;25.10;99.90;;;;;;5053987;28;20213;-58
2022/06/22 12:39:10;;;;;;;8.23;5.68;;;25.10;99.90;;;;;;5052856;28;20197;-58
2022/06/22 12:41:50;;;;;;;9.10;5.47;;;25.00;99.90;;;;;;5055165;28;20197;-58
2022/06/22 12:44:45;;;;;;;10.85;5.32;;;24.90;99.90;;;;;;5055087;28;20249;-58
2022/06/22 12:47:38;;;;;;;8.18;5.88;;;24.90;99.90;;;;;;5055012;28;20593;-58
2022/06/22 12:50:41;;;;;;;7.10;5.13;;;25.00;99.90;;;;;;5054872;28;20220;-58
2022/06/22 12:53:30;;;;;;;10.55;5.45;;;25.10;99.90;;;;;;5054886;28;20260;-58
2022/06/22 12:56:05;;;;;;;6.25;5.40;;;25.30;99.90;;;;;;5054245;28;20248;-58
2022/06/22 12:58:39;;;;;;;9.35;5.53;;;25.40;99.90;;;;;;5054895;28;20279;-58
2022/06/22 13:01:05;;;;;;;6.22;5.07;;;25.30;99.90;;;;;;5054657;28;20585;-58
2022/06/22 13:03:41;;;;;;;9.07;5.53;;;25.30;99.90;;;;;;5054777;28;20642;-58
2022/06/22 13:06:07;;;;;;;6.75;5.55;;;25.40;99.90;;;;;;5054588;28;20667;-58
2022/06/22 13:08:32;;;;;;;6.78;5.65;;;25.40;99.90;;;;;;5054592;28;20188;-58
2022/06/22 13:11:06;;;;;;;11.93;5.80;;;25.40;99.90;;;;;;5054462;28;20178;-58
2022/06/22 13:13:47;;;;;;;9.73;6.45;;;25.30;99.90;;;;;;5054504;28;20177;-58
2022/06/22 13:16:36;;;;;;;8.45;5.82;;;25.10;99.90;;;;;;5054317;28;20224;-58
2022/06/22 13:19:14;;;;;;;10.90;6.25;;;24.90;99.90;;;;;;5054142;28;20222;-58
2022/06/22 13:22:00;;;;;;;11.85;6.28;;;24.70;99.90;;;;;;5054405;28;20189;-58
2022/06/22 13:24:44;;;;;;;7.88;5.90;;;24.50;99.90;;;;;;5054419;28;20220;-58
2022/06/22 13:27:48;;;;;;;8.90;6.88;;;24.40;99.90;;;;;;5054296;28;20169;-58
2022/06/22 13:30:42;;;;;;;8.95;5.40;;;24.20;99.90;;;;;;5054520;28;20514;-58
2022/06/22 13:33:12;;;;;;;6.60;5.68;;;24.10;99.90;;;;;;5054127;28;20213;-58
2022/06/22 13:35:43;;;;;;;11.07;6.50;;;23.90;99.90;;;;;;5054071;28;20209;-58
2022/06/22 13:38:29;;;;;;;12.38;7.00;;;23.80;99.90;;;;;;5054098;28;20248;-58
2022/06/22 13:41:31;;;;;;;8.73;7.20;;;23.60;99.90;;;;;;5053973;28;20178;-58
2022/06/22 13:44:02;;;;;;;8.63;6.95;;;23.60;99.90;;;;;;5053962;28;20218;-58
2022/06/22 13:47:09;;;;;;;9.00;6.70;;;23.50;99.90;;;;;;5053797;28;20181;-58
2022/06/22 13:49:53;;;;;;;10.93;7.40;;;23.50;99.90;;;;;;5053817;28;20524;-58
2022/06/22 13:52:21;;;;;;;8.90;6.93;;;23.60;99.90;;;;;;5053894;28;20574;-58
2022/06/22 13:55:09;;;;;;;8.77;7.32;;;23.60;99.90;;;;;;5053604;28;20173;-59
2022/06/22 13:58:00;;;;;;;11.98;6.90;;;23.60;99.90;;;;;;5053939;28;20177;-58
2022/06/22 14:00:42;;;;;;;10.57;7.75;;;23.70;99.90;;;;;;5053628;28;20174;-58
2022/06/22 14:03:40;;;;;;;12.70;7.63;;;23.80;99.90;;;;;;5053507;28;20197;-58
2022/06/22 14:06:23;;;;;;;11.45;7.20;;;24.00;99.90;;;;;;5053437;28;20170;-58
2022/06/22 14:09:14;;;;;;;9.07;6.70;;;24.10;99.90;;;;;;5053456;28;20177;-58
2022/06/22 14:12:02;;;;;;;10.85;7.22;;;24.10;99.90;;;;;;5053547;28;20204;-58
2022/06/22 14:14:31;;;;;;;10.75;7.32;;;24.20;99.90;;;;;;5053489;28;20173;-58